« Back
NWS Peachtree City, Ga » Text Product » AHN Terminal Aerodrome Forecast


Printer-friendly Version
Current Version              Previous Versions:   1  2  3  4  5  6  7  8  9  

Terminal Aerodrome Forecast

767
FTAK31 PAJN 240500
TAFAHN
TAF
PAHN 240528Z 2406/2506 VRB03KT P6SM VCSH SCT070 BKN080
     FM241800 30009KT P6SM VCSH BKN080
      AMD LTD TO CLD VIS AND WIND=

USA.gov is the U.S. government's official web portal to all federal, state and local government web resources and services.